Time;durP1;ratioP1;P1;durP2;ratioP2;P2;SDS_P1;SDS_P2;PMS_P1;PMS_P2;Temp;Humidity;BMP_temperature;BMP_pressure;BME280_temperature;BME280_humidity;BME280_pressure;Samples;Min_cycle;Max_cycle;Signal;HPM_P1;HPM_P2
2022/04/15 00:02:05;;;;;;;44.10;25.00;;;9.30;99.90;;;;;;4957573;28;20110;-71
2022/04/15 00:04:32;;;;;;;29.05;23.92;;;9.30;99.90;;;;;;4958205;28;20797;-71
2022/04/15 00:06:59;;;;;;;33.30;23.38;;;9.30;99.90;;;;;;4941360;28;20565;-71
2022/04/15 00:09:26;;;;;;;33.03;21.40;;;9.20;99.90;;;;;;4976420;28;20062;-71
2022/04/15 00:11:55;;;;;;;30.80;21.80;;;9.10;99.90;;;;;;4958000;28;20426;-72
2022/04/15 00:14:22;;;;;;;29.92;20.95;;;9.00;99.90;;;;;;4966489;28;20038;-70
2022/04/15 00:16:49;;;;;;;31.05;22.55;;;8.90;99.90;;;;;;4977634;28;20058;-71
2022/04/15 00:19:16;;;;;;;26.52;20.20;;;8.80;99.90;;;;;;4974616;28;20054;-70
2022/04/15 00:21:43;;;;;;;34.38;21.15;;;8.50;99.90;;;;;;4975862;28;20046;-71
2022/04/15 00:24:10;;;;;;;32.08;21.90;;;8.40;99.90;;;;;;4976176;28;20777;-71
2022/04/15 00:26:37;;;;;;;34.88;21.80;;;8.40;99.90;;;;;;4975690;28;20105;-70
2022/04/15 00:29:06;;;;;;;37.60;24.02;;;8.50;99.90;;;;;;4970021;28;20050;-71
2022/04/15 00:31:34;;;;;;;34.88;22.85;;;8.40;99.90;;;;;;4974402;28;20509;-71
2022/04/15 00:34:02;;;;;;;35.53;24.10;;;8.40;99.90;;;;;;4976468;28;20053;-71
2022/04/15 00:36:29;;;;;;;39.55;22.77;;;8.10;99.90;;;;;;4958729;28;20046;-69
2022/04/15 00:38:56;;;;;;;38.50;24.95;;;8.00;99.90;;;;;;4973789;28;20046;-71
2022/04/15 00:41:23;;;;;;;36.08;24.48;;;7.90;99.90;;;;;;4972528;28;20054;-71
2022/04/15 00:43:54;;;;;;;34.90;23.05;;;7.80;99.90;;;;;;4960290;28;20057;-71
2022/04/15 00:46:21;;;;;;;34.08;23.27;;;7.80;99.90;;;;;;4960944;28;20050;-71
2022/04/15 00:48:48;;;;;;;35.88;25.35;;;7.80;99.90;;;;;;4985808;23;20073;-75
2022/04/15 00:51:14;;;;;;;38.30;24.20;;;7.80;99.90;;;;;;4982354;28;20034;-74
2022/04/15 00:53:44;;;;;;;33.83;24.90;;;7.80;99.90;;;;;;4966108;28;20042;-75
2022/04/15 00:56:12;;;;;;;37.33;23.65;;;7.60;99.90;;;;;;4967820;28;20070;-75
2022/04/15 00:58:41;;;;;;;31.90;22.75;;;7.40;99.90;;;;;;4974143;28;20069;-75
2022/04/15 01:01:08;;;;;;;40.10;24.85;;;7.30;99.90;;;;;;4984515;28;20057;-75
2022/04/15 01:03:36;;;;;;;36.67;23.10;;;7.30;99.90;;;;;;4985199;28;20053;-75
2022/04/15 01:06:05;;;;;;;37.90;23.60;;;7.20;99.90;;;;;;4985437;28;20492;-75
2022/04/15 01:08:36;;;;;;;38.85;25.73;;;7.20;99.90;;;;;;4985243;28;20112;-75
2022/04/15 01:11:04;;;;;;;43.42;25.98;;;7.20;99.90;;;;;;4966939;28;20042;-75
2022/04/15 01:13:35;;;;;;;37.90;24.08;;;7.20;99.90;;;;;;4988048;28;20108;-75
2022/04/15 01:16:03;;;;;;;38.00;23.75;;;7.10;99.90;;;;;;4985033;28;20221;-75
2022/04/15 01:18:31;;;;;;;41.00;24.85;;;7.10;99.90;;;;;;4985460;28;20139;-75
2022/04/15 01:20:58;;;;;;;36.42;24.15;;;7.10;99.90;;;;;;4983728;28;20062;-75
2022/04/15 01:23:25;;;;;;;39.50;24.25;;;7.20;99.90;;;;;;4985186;28;20050;-75
2022/04/15 01:25:52;;;;;;;37.83;24.17;;;7.20;99.90;;;;;;4970698;28;20049;-75
2022/04/15 01:28:19;;;;;;;39.35;24.02;;;7.30;99.90;;;;;;5000250;28;20049;-75
2022/04/15 01:30:47;;;;;;;37.03;24.75;;;7.30;99.90;;;;;;4969248;28;20376;-75
2022/04/15 01:33:14;;;;;;;46.83;24.08;;;7.40;99.90;;;;;;4985826;28;20131;-75
2022/04/15 01:35:45;;;;;;;41.58;24.08;;;7.50;99.90;;;;;;4985363;28;20041;-75
2022/04/15 01:38:14;;;;;;;33.80;22.92;;;7.60;99.90;;;;;;4988108;28;20050;-75
2022/04/15 01:40:42;;;;;;;36.70;22.42;;;7.70;99.90;;;;;;4968587;28;20049;-75
2022/04/15 01:43:10;;;;;;;37.67;20.85;;;7.90;99.90;;;;;;4992399;28;20578;-75
2022/04/15 01:45:37;;;;;;;40.45;21.55;;;8.00;99.90;;;;;;5006071;28;20073;-75
2022/04/15 01:48:04;;;;;;;34.17;20.67;;;8.10;99.90;;;;;;4974337;28;20096;-78
2022/04/15 01:50:31;;;;;;;42.60;20.92;;;8.20;99.90;;;;;;4989018;28;20132;-75
2022/04/15 01:52:58;;;;;;;38.47;20.23;;;8.30;99.90;;;;;;4973493;28;20062;-75
2022/04/15 01:55:26;;;;;;;32.60;20.25;;;8.40;99.90;;;;;;4974030;28;20232;-75
2022/04/15 01:57:53;;;;;;;31.77;20.70;;;8.40;99.90;;;;;;4996474;28;20769;-75
2022/04/15 02:00:20;;;;;;;31.20;22.35;;;8.50;99.90;;;;;;4990522;28;20046;-75
2022/04/15 02:02:47;;;;;;;36.63;21.38;;;8.60;99.90;;;;;;4988405;28;20101;-75
2022/04/15 02:05:14;;;;;;;33.15;21.20;;;8.70;99.90;;;;;;4986761;28;20057;-75
2022/04/15 02:07:41;;;;;;;34.58;20.00;;;8.70;99.90;;;;;;4987992;28;20104;-75
2022/04/15 02:10:09;;;;;;;29.98;18.90;;;8.80;99.90;;;;;;4968557;28;20582;-75
2022/04/15 02:12:36;;;;;;;27.40;18.05;;;8.70;99.90;;;;;;4991685;28;20041;-75
2022/04/15 02:15:04;;;;;;;28.10;18.50;;;8.70;99.90;;;;;;4987851;28;20045;-75
2022/04/15 02:17:30;;;;;;;32.70;20.38;;;8.70;99.90;;;;;;5005992;28;20126;-75
2022/04/15 02:19:57;;;;;;;26.35;18.75;;;8.60;99.90;;;;;;4988278;28;20042;-76
2022/04/15 02:22:24;;;;;;;27.42;18.65;;;8.60;99.90;;;;;;4988113;28;20038;-75
2022/04/15 02:24:51;;;;;;;28.73;18.95;;;8.60;99.90;;;;;;4989106;28;20049;-75
2022/04/15 02:27:18;;;;;;;33.25;19.67;;;8.60;99.90;;;;;;4976096;28;20066;-76
2022/04/15 02:29:44;;;;;;;30.58;20.10;;;8.60;99.90;;;;;;4993641;28;20046;-75
2022/04/15 02:32:11;;;;;;;29.13;18.65;;;8.60;99.90;;;;;;4971978;28;20072;-76
2022/04/15 02:34:38;;;;;;;35.75;19.13;;;8.70;99.90;;;;;;4986672;28;20057;-75
2022/04/15 02:37:05;;;;;;;34.20;21.02;;;8.60;99.90;;;;;;4988092;28;20183;-76
2022/04/15 02:39:32;;;;;;;31.42;20.63;;;8.60;99.90;;;;;;4993638;28;20046;-75
2022/04/15 02:42:00;;;;;;;36.63;21.33;;;8.60;99.90;;;;;;5005440;28;20148;-75
2022/04/15 02:44:29;;;;;;;34.00;20.25;;;8.60;99.90;;;;;;4988062;28;20372;-76
2022/04/15 02:46:58;;;;;;;36.03;20.45;;;8.60;99.90;;;;;;4969676;28;20046;-75
2022/04/15 02:49:28;;;;;;;33.20;21.60;;;8.60;99.90;;;;;;4987728;28;20050;-76
2022/04/15 02:51:56;;;;;;;33.85;21.42;;;8.50;99.90;;;;;;4987463;28;20056;-75
2022/04/15 02:54:23;;;;;;;40.00;21.45;;;8.50;99.90;;;;;;4987491;28;20626;-76
2022/04/15 02:56:51;;;;;;;37.33;21.20;;;8.50;99.90;;;;;;4996488;28;20057;-76
2022/04/15 02:59:18;;;;;;;37.65;22.42;;;8.50;99.90;;;;;;4977694;28;20103;-75
2022/04/15 03:01:45;;;;;;;35.28;21.95;;;8.40;99.90;;;;;;4986589;28;20108;-75
2022/04/15 03:04:12;;;;;;;35.67;21.90;;;8.40;99.90;;;;;;4968950;28;20088;-75
2022/04/15 03:06:39;;;;;;;34.10;20.00;;;8.40;99.90;;;;;;4986838;28;20058;-76
2022/04/15 03:09:07;;;;;;;36.08;20.75;;;8.20;99.90;;;;;;4969343;28;20337;-75
2022/04/15 03:11:37;;;;;;;38.33;21.70;;;8.20;99.90;;;;;;5004577;28;20046;-76
2022/04/15 03:14:05;;;;;;;37.15;21.60;;;8.20;99.90;;;;;;4989969;28;20038;-75
2022/04/15 03:16:33;;;;;;;36.38;21.73;;;8.20;99.90;;;;;;4987381;28;20050;-76
2022/04/15 03:19:00;;;;;;;37.33;22.05;;;8.20;99.90;;;;;;5004656;28;20050;-76
2022/04/15 03:21:27;;;;;;;33.50;21.58;;;8.10;99.90;;;;;;4969419;28;20053;-75
2022/04/15 03:23:54;;;;;;;38.25;22.77;;;8.00;99.90;;;;;;4971186;28;20495;-75
2022/04/15 03:26:21;;;;;;;40.28;22.88;;;8.00;99.90;;;;;;4990408;28;20156;-75
2022/04/15 03:28:48;;;;;;;39.50;21.70;;;7.90;99.90;;;;;;5015086;23;20077;-73
2022/04/15 03:31:15;;;;;;;36.15;21.95;;;7.80;99.90;;;;;;4964335;28;20109;-74
2022/04/15 03:33:42;;;;;;;36.08;22.13;;;7.80;99.90;;;;;;4967428;28;20046;-74
2022/04/15 03:36:09;;;;;;;40.30;23.20;;;7.70;99.90;;;;;;4967429;28;20104;-74
2022/04/15 03:38:36;;;;;;;40.28;20.90;;;7.70;99.90;;;;;;4963987;28;20700;-73
2022/04/15 03:41:03;;;;;;;36.13;22.67;;;7.70;99.90;;;;;;4965042;28;20051;-74
2022/04/15 03:43:30;;;;;;;38.13;21.60;;;7.60;99.90;;;;;;4985707;28;20090;-73
2022/04/15 03:45:57;;;;;;;53.33;22.40;;;7.50;99.90;;;;;;4953293;28;20053;-76
2022/04/15 03:48:25;;;;;;;37.45;20.73;;;7.50;99.90;;;;;;4964621;28;20057;-73
2022/04/15 03:50:53;;;;;;;43.67;22.08;;;7.50;99.90;;;;;;4962985;28;20190;-76
2022/04/15 03:53:20;;;;;;;39.50;20.63;;;7.50;99.90;;;;;;4948222;28;20074;-74
2022/04/15 03:55:48;;;;;;;27.02;19.50;;;7.40;99.90;;;;;;4979679;28;20113;-73
2022/04/15 03:58:16;;;;;;;30.50;18.73;;;7.40;99.90;;;;;;4959019;28;20047;-73
2022/04/15 04:00:44;;;;;;;32.47;19.48;;;7.40;99.90;;;;;;4944146;28;20136;-73
2022/04/15 04:03:11;;;;;;;30.77;18.02;;;7.40;99.90;;;;;;4947931;28;20055;-75
2022/04/15 04:05:38;;;;;;;33.47;20.25;;;7.50;99.90;;;;;;4963335;28;20045;-76
2022/04/15 04:08:05;;;;;;;30.48;18.75;;;7.50;99.90;;;;;;4948623;28;20114;-75
2022/04/15 04:10:33;;;;;;;31.20;18.88;;;7.60;99.90;;;;;;4979564;28;20054;-76
2022/04/15 04:13:02;;;;;;;34.15;19.20;;;7.60;99.90;;;;;;4952722;28;20198;-76
2022/04/15 04:15:31;;;;;;;30.98;19.25;;;7.50;99.90;;;;;;4947511;28;20046;-73
2022/04/15 04:17:58;;;;;;;36.22;20.13;;;7.50;99.90;;;;;;4948225;28;20343;-73
2022/04/15 04:20:25;;;;;;;29.02;18.38;;;7.60;99.90;;;;;;4961749;28;20051;-73
2022/04/15 04:22:52;;;;;;;30.02;19.00;;;7.50;99.90;;;;;;4948204;28;20050;-73
2022/04/15 04:25:19;;;;;;;33.35;18.45;;;7.50;99.90;;;;;;4963497;28;20504;-73
2022/04/15 04:27:46;;;;;;;30.67;18.95;;;7.40;99.90;;;;;;4954743;28;20066;-73
2022/04/15 04:30:14;;;;;;;32.33;19.25;;;7.40;99.90;;;;;;4946584;28;20534;-73
2022/04/15 04:32:42;;;;;;;35.20;20.52;;;7.50;99.90;;;;;;4963989;28;20121;-76
2022/04/15 04:35:09;;;;;;;31.60;18.60;;;7.50;99.90;;;;;;4962501;28;20125;-76
2022/04/15 04:37:36;;;;;;;27.88;18.23;;;7.50;99.90;;;;;;4963999;28;20055;-73
2022/04/15 04:40:03;;;;;;;29.95;17.98;;;7.60;99.90;;;;;;4962590;28;20109;-73
2022/04/15 04:42:30;;;;;;;29.02;19.55;;;7.60;99.90;;;;;;4967488;28;20108;-76
2022/04/15 04:44:57;;;;;;;29.55;19.58;;;7.60;99.90;;;;;;4965054;28;20035;-73
2022/04/15 04:47:25;;;;;;;29.15;18.65;;;7.70;99.90;;;;;;4947075;28;20053;-73
2022/04/15 04:49:52;;;;;;;30.65;19.27;;;7.60;99.90;;;;;;4947329;28;20054;-73
2022/04/15 04:52:19;;;;;;;28.15;18.90;;;7.60;99.90;;;;;;4964654;28;20077;-76
2022/04/15 04:54:46;;;;;;;36.72;18.90;;;7.60;99.90;;;;;;4947246;28;20055;-76
2022/04/15 04:57:13;;;;;;;28.20;18.42;;;7.60;99.90;;;;;;4964511;28;20038;-74
2022/04/15 04:59:39;;;;;;;23.80;16.77;;;7.60;99.90;;;;;;4966402;28;20070;-73
2022/04/15 05:02:09;;;;;;;27.13;17.42;;;7.50;99.90;;;;;;4964268;28;20050;-75
2022/04/15 05:04:36;;;;;;;28.27;17.83;;;7.40;99.90;;;;;;4965150;28;20050;-75
2022/04/15 05:07:04;;;;;;;25.33;17.38;;;7.50;99.90;;;;;;4946567;28;20053;-75
2022/04/15 05:09:30;;;;;;;26.70;16.58;;;7.40;99.90;;;;;;4946999;28;20050;-75
2022/04/15 05:11:57;;;;;;;29.13;18.17;;;7.30;99.90;;;;;;4946841;28;20547;-75
2022/04/15 05:14:24;;;;;;;27.90;18.05;;;7.30;99.90;;;;;;4965577;28;20400;-76
2022/04/15 05:16:51;;;;;;;27.70;16.65;;;7.30;99.90;;;;;;4964213;28;20050;-75
2022/04/15 05:19:17;;;;;;;29.55;16.63;;;7.30;99.90;;;;;;4982417;28;20582;-75
2022/04/15 05:21:44;;;;;;;27.65;18.95;;;7.30;99.90;;;;;;4983417;28;20050;-75
2022/04/15 05:24:12;;;;;;;27.33;17.23;;;7.30;99.90;;;;;;4966206;28;20113;-75
2022/04/15 05:26:39;;;;;;;23.65;16.80;;;7.30;99.90;;;;;;4960962;28;20046;-75
2022/04/15 05:29:08;;;;;;;24.55;16.67;;;7.30;99.90;;;;;;4956547;28;20150;-75
2022/04/15 05:31:35;;;;;;;26.15;16.80;;;7.30;99.90;;;;;;4961297;28;20653;-75
2022/04/15 05:34:03;;;;;;;23.13;16.95;;;7.30;99.90;;;;;;4962370;28;20085;-75
2022/04/15 05:36:30;;;;;;;28.33;18.02;;;7.20;99.90;;;;;;4944139;28;20050;-75
2022/04/15 05:38:56;;;;;;;27.40;17.33;;;7.20;99.90;;;;;;4961834;28;20050;-75
2022/04/15 05:41:23;;;;;;;28.08;18.42;;;7.30;99.90;;;;;;4959986;28;20055;-75
2022/04/15 05:43:50;;;;;;;28.48;18.27;;;7.30;99.90;;;;;;4965423;28;20051;-75
2022/04/15 05:46:16;;;;;;;24.90;16.10;;;7.30;99.90;;;;;;4960421;28;20310;-74
2022/04/15 05:48:43;;;;;;;23.90;17.05;;;7.30;99.90;;;;;;4946889;28;20051;-74
2022/04/15 05:51:10;;;;;;;21.48;16.15;;;7.30;99.90;;;;;;4944338;28;20503;-73
2022/04/15 05:53:37;;;;;;;25.02;16.48;;;7.30;99.90;;;;;;4944788;28;20307;-76
2022/04/15 05:56:04;;;;;;;20.85;16.25;;;7.30;99.90;;;;;;4961332;28;20049;-73
2022/04/15 05:58:31;;;;;;;20.67;15.68;;;7.30;99.90;;;;;;4949062;28;20082;-73
2022/04/15 06:00:57;;;;;;;22.42;17.42;;;7.20;99.90;;;;;;4959539;28;20047;-74
2022/04/15 06:03:24;;;;;;;22.00;16.77;;;7.20;99.90;;;;;;4943768;28;20035;-74
2022/04/15 06:05:51;;;;;;;20.60;15.75;;;7.20;99.90;;;;;;4961432;28;20054;-74
2022/04/15 06:08:18;;;;;;;20.55;15.48;;;7.30;99.90;;;;;;4961895;28;20460;-73
2022/04/15 06:10:45;;;;;;;23.67;17.50;;;7.30;99.90;;;;;;4974520;28;20071;-73
2022/04/15 06:13:19;;;;;;;24.58;16.92;;;7.40;99.90;;;;;;4951378;28;20146;-74
2022/04/15 06:15:57;;;;;;;22.48;16.13;;;7.50;99.90;;;;;;4961439;28;20129;-74
2022/04/15 06:18:34;;;;;;;21.83;18.08;;;7.40;99.90;;;;;;4947302;28;20051;-74
2022/04/15 06:21:02;;;;;;;21.90;16.45;;;7.30;99.90;;;;;;4952395;28;20058;-74
2022/04/15 06:23:29;;;;;;;19.13;16.10;;;7.30;99.90;;;;;;4971207;28;20042;-74
2022/04/15 06:25:56;;;;;;;22.38;17.05;;;7.30;99.90;;;;;;4947023;28;20134;-74
2022/04/15 06:28:22;;;;;;;19.25;17.13;;;7.10;99.90;;;;;;4954484;28;20050;-74
2022/04/15 06:30:50;;;;;;;19.92;17.13;;;7.10;99.90;;;;;;4964005;28;20213;-73
2022/04/15 06:33:20;;;;;;;21.80;16.80;;;7.00;99.90;;;;;;4964587;28;20074;-74
2022/04/15 06:35:47;;;;;;;19.58;17.63;;;7.10;99.90;;;;;;4948099;28;20619;-73
2022/04/15 06:38:14;;;;;;;20.60;17.30;;;7.00;99.90;;;;;;4948589;28;20098;-74
2022/04/15 06:40:41;;;;;;;20.25;18.10;;;7.10;99.90;;;;;;4946483;28;20102;-74
2022/04/15 06:43:08;;;;;;;20.23;18.05;;;7.30;99.90;;;;;;4984864;28;20050;-74
2022/04/15 06:45:35;;;;;;;23.20;17.92;;;7.40;99.90;;;;;;4964565;28;20205;-73
2022/04/15 06:48:02;;;;;;;21.38;18.45;;;7.50;99.90;;;;;;4965823;28;20078;-73
2022/04/15 06:50:31;;;;;;;20.33;17.60;;;7.60;99.90;;;;;;4982786;28;20070;-74
2022/04/15 06:53:00;;;;;;;21.42;19.23;;;7.60;99.90;;;;;;4949187;28;20058;-74
2022/04/15 06:55:27;;;;;;;22.25;19.08;;;7.50;99.90;;;;;;4966691;28;20069;-74
2022/04/15 06:57:54;;;;;;;22.45;18.75;;;7.50;99.90;;;;;;4966876;28;20050;-74
2022/04/15 07:00:22;;;;;;;21.08;18.85;;;7.50;99.90;;;;;;4949917;28;20170;-74
2022/04/15 07:02:50;;;;;;;23.92;20.10;;;7.40;99.90;;;;;;4965416;28;20125;-74
2022/04/15 07:05:17;;;;;;;25.25;19.38;;;7.30;99.90;;;;;;4965629;28;20420;-74
2022/04/15 07:07:44;;;;;;;27.05;20.00;;;7.40;99.90;;;;;;4948304;28;20055;-74
2022/04/15 07:10:11;;;;;;;23.40;19.23;;;7.30;99.90;;;;;;4964800;28;20508;-73
2022/04/15 07:12:39;;;;;;;23.02;18.17;;;7.30;99.90;;;;;;4970996;28;20054;-74
2022/04/15 07:15:06;;;;;;;21.50;18.65;;;7.30;99.90;;;;;;4965560;28;20473;-74
2022/04/15 07:17:33;;;;;;;28.02;19.63;;;7.30;99.90;;;;;;4964417;28;20047;-74
2022/04/15 07:20:00;;;;;;;24.25;20.23;;;7.10;99.90;;;;;;4964537;28;20097;-73
2022/04/15 07:22:27;;;;;;;24.67;18.75;;;7.00;99.90;;;;;;4966881;28;20100;-76
2022/04/15 07:24:54;;;;;;;26.45;19.98;;;7.00;99.90;;;;;;4963854;28;20120;-74
2022/04/15 07:27:22;;;;;;;27.60;19.48;;;7.00;99.90;;;;;;4971913;28;20058;-74
2022/04/15 07:29:48;;;;;;;21.73;17.75;;;7.00;99.90;;;;;;4968182;28;20089;-74
2022/04/15 07:32:21;;;;;;;22.48;18.23;;;6.90;99.90;;;;;;4964713;28;20051;-74
2022/04/15 07:34:49;;;;;;;25.15;17.50;;;6.80;99.90;;;;;;4966754;28;20137;-74
2022/04/15 07:37:16;;;;;;;21.52;17.23;;;6.90;99.90;;;;;;4949056;28;20046;-74
2022/04/15 07:39:44;;;;;;;22.42;17.20;;;6.90;99.90;;;;;;4948877;28;20736;-74
2022/04/15 07:42:14;;;;;;;23.35;16.90;;;7.00;99.90;;;;;;4951049;28;20082;-74
2022/04/15 07:44:41;;;;;;;18.45;15.57;;;6.90;99.90;;;;;;4964245;28;20075;-74
2022/04/15 07:47:08;;;;;;;22.10;16.67;;;7.00;99.90;;;;;;4963839;28;20058;-76
2022/04/15 07:49:35;;;;;;;24.58;15.80;;;7.10;99.90;;;;;;4953701;28;20051;-74
2022/04/15 07:52:04;;;;;;;19.42;15.02;;;7.10;99.90;;;;;;4952523;28;20530;-74
2022/04/15 07:54:33;;;;;;;19.83;15.63;;;7.00;99.90;;;;;;4974487;28;20052;-76
2022/04/15 07:57:00;;;;;;;24.02;17.75;;;7.10;99.90;;;;;;4979634;28;20043;-74
2022/04/15 07:59:28;;;;;;;19.08;14.15;;;7.10;99.90;;;;;;4954334;28;20042;-74
2022/04/15 08:01:55;;;;;;;19.40;13.85;;;7.20;99.90;;;;;;4964266;28;20063;-74
2022/04/15 08:04:22;;;;;;;22.27;15.32;;;7.20;99.90;;;;;;4972208;28;20508;-74
2022/04/15 08:06:49;;;;;;;20.15;15.77;;;7.10;99.90;;;;;;4967814;28;20109;-74
2022/04/15 08:09:19;;;;;;;23.25;15.65;;;7.20;99.90;;;;;;4970585;28;20061;-74
2022/04/15 08:11:45;;;;;;;23.52;16.45;;;7.30;99.90;;;;;;4965655;28;20058;-74
2022/04/15 08:14:12;;;;;;;20.17;14.93;;;7.30;99.90;;;;;;4966299;28;20109;-74
2022/04/15 08:16:39;;;;;;;19.00;15.32;;;7.30;99.90;;;;;;4969715;28;20101;-74
2022/04/15 08:19:06;;;;;;;17.52;14.10;;;7.20;99.90;;;;;;4959048;28;20401;-74
2022/04/15 08:21:33;;;;;;;17.27;14.80;;;7.40;99.90;;;;;;4965262;28;20086;-74
2022/04/15 08:24:01;;;;;;;16.17;14.48;;;7.50;99.90;;;;;;4967595;28;20051;-74
2022/04/15 08:26:29;;;;;;;19.25;15.38;;;7.60;99.90;;;;;;4971842;28;20035;-76
2022/04/15 08:28:56;;;;;;;18.65;15.70;;;7.80;99.90;;;;;;4955053;28;20050;-76
2022/04/15 08:31:23;;;;;;;21.98;16.70;;;7.90;99.90;;;;;;4966332;28;20428;-76
2022/04/15 08:33:50;;;;;;;20.25;17.52;;;8.00;99.90;;;;;;4949059;28;20730;-75
2022/04/15 08:36:17;;;;;;;20.35;16.50;;;8.00;99.90;;;;;;4965636;28;20345;-75
2022/04/15 08:38:44;;;;;;;21.35;17.48;;;7.90;99.90;;;;;;4966674;28;20129;-75
2022/04/15 08:41:13;;;;;;;20.73;15.98;;;7.80;99.90;;;;;;4965201;28;20043;-76
2022/04/15 08:43:42;;;;;;;19.77;16.25;;;7.80;99.90;;;;;;4967937;28;20054;-76
2022/04/15 08:46:10;;;;;;;19.95;16.15;;;7.90;99.90;;;;;;4971893;28;20050;-76
2022/04/15 08:48:39;;;;;;;25.08;17.48;;;7.90;99.90;;;;;;4986082;28;20053;-76
2022/04/15 08:51:06;;;;;;;19.55;16.60;;;7.90;99.90;;;;;;4984038;28;20293;-76
2022/04/15 08:53:37;;;;;;;20.40;16.05;;;7.90;99.90;;;;;;4984307;28;20046;-76
2022/04/15 08:56:05;;;;;;;21.25;15.50;;;7.90;99.90;;;;;;4962384;28;20049;-74
2022/04/15 08:58:32;;;;;;;23.83;16.10;;;7.90;99.90;;;;;;4971155;28;20124;-73
2022/04/15 09:00:59;;;;;;;17.83;15.90;;;8.00;99.90;;;;;;4962156;28;20101;-74
2022/04/15 09:03:26;;;;;;;17.88;16.10;;;8.10;99.90;;;;;;4952789;28;20452;-74
2022/04/15 09:05:54;;;;;;;17.60;15.88;;;8.10;99.90;;;;;;4981679;28;20514;-76
2022/04/15 09:08:20;;;;;;;19.70;16.95;;;8.10;99.90;;;;;;4968566;28;20148;-73
2022/04/15 09:10:55;;;;;;;18.60;16.58;;;8.00;99.90;;;;;;4982983;28;20124;-73
2022/04/15 09:13:28;;;;;;;19.88;17.75;;;7.80;99.90;;;;;;4977284;28;20050;-74
2022/04/15 09:15:58;;;;;;;22.48;17.08;;;8.00;99.90;;;;;;4953479;28;20125;-75
2022/04/15 09:18:31;;;;;;;18.83;16.92;;;8.00;99.90;;;;;;4983674;28;20046;-74
2022/04/15 09:21:16;;;;;;;19.23;17.17;;;8.20;99.90;;;;;;4964703;28;20046;-75
2022/04/15 09:23:51;;;;;;;23.58;17.10;;;8.50;99.90;;;;;;4964350;28;20051;-75
2022/04/15 09:26:20;;;;;;;19.38;17.23;;;8.70;99.90;;;;;;4965103;28;20305;-75
2022/04/15 09:28:48;;;;;;;19.42;17.83;;;9.00;99.90;;;;;;4982500;23;20042;-71
2022/04/15 09:31:17;;;;;;;19.95;18.27;;;9.40;99.90;;;;;;4949609;28;20069;-70
2022/04/15 09:33:51;;;;;;;21.30;19.20;;;9.60;99.90;;;;;;4975475;28;20072;-71
2022/04/15 09:36:33;;;;;;;21.05;19.10;;;9.80;99.90;;;;;;4975756;28;20073;-71
2022/04/15 09:39:11;;;;;;;21.65;19.77;;;9.80;99.90;;;;;;4958491;28;20172;-70
2022/04/15 09:41:39;;;;;;;21.00;19.50;;;9.90;99.90;;;;;;4955435;28;20046;-69
2022/04/15 09:44:11;;;;;;;21.60;19.80;;;9.90;99.90;;;;;;4955007;28;20101;-71
2022/04/15 09:46:41;;;;;;;22.75;20.83;;;10.10;99.90;;;;;;4973579;28;20292;-70
2022/04/15 09:49:09;;;;;;;21.35;19.75;;;10.10;99.90;;;;;;4957306;28;20574;-70
2022/04/15 09:51:45;;;;;;;23.17;21.17;;;10.00;99.90;;;;;;4967428;28;20050;-70
2022/04/15 09:54:28;;;;;;;22.05;20.15;;;9.90;99.90;;;;;;4974925;28;20049;-70
2022/04/15 09:56:59;;;;;;;20.38;18.98;;;9.90;99.90;;;;;;4975925;28;20042;-71
2022/04/15 09:59:27;;;;;;;22.50;20.90;;;9.90;99.90;;;;;;4971963;28;20046;-70
2022/04/15 10:02:02;;;;;;;21.67;19.95;;;9.90;99.90;;;;;;4973487;28;20455;-70
2022/04/15 10:04:31;;;;;;;22.38;20.50;;;9.90;99.90;;;;;;4977357;28;20054;-71
2022/04/15 10:07:04;;;;;;;22.75;20.90;;;9.90;99.90;;;;;;4960466;28;20046;-71
2022/04/15 10:09:36;;;;;;;23.10;21.42;;;10.00;99.90;;;;;;4959911;28;20317;-70
2022/04/15 10:12:05;;;;;;;21.55;20.02;;;9.90;99.90;;;;;;4975168;28;20046;-71
2022/04/15 10:14:33;;;;;;;22.30;20.73;;;9.80;99.90;;;;;;4977053;28;20227;-71
2022/04/15 10:17:01;;;;;;;22.52;20.85;;;9.80;99.90;;;;;;4960519;28;20049;-71
2022/04/15 10:19:29;;;;;;;22.98;21.25;;;9.90;99.90;;;;;;4976999;28;20218;-69
2022/04/15 10:21:56;;;;;;;22.63;20.95;;;10.10;99.90;;;;;;4965956;28;20043;-70
2022/04/15 10:24:24;;;;;;;22.55;20.90;;;10.20;99.90;;;;;;4957122;28;20054;-72
2022/04/15 10:26:57;;;;;;;22.10;20.50;;;10.20;99.90;;;;;;4979162;28;20046;-71
2022/04/15 10:29:24;;;;;;;21.63;20.10;;;10.30;99.90;;;;;;4972499;28;20047;-71
2022/04/15 10:31:54;;;;;;;23.38;21.17;;;10.40;99.90;;;;;;4963744;28;20046;-70
2022/04/15 10:34:22;;;;;;;22.08;20.35;;;10.60;99.90;;;;;;4977200;28;20144;-70
2022/04/15 10:36:51;;;;;;;23.65;21.73;;;10.90;99.90;;;;;;4975827;28;20514;-69
2022/04/15 10:39:25;;;;;;;23.67;21.88;;;10.70;99.90;;;;;;4956688;28;20698;-69
2022/04/15 10:41:56;;;;;;;25.13;23.30;;;10.70;99.90;;;;;;4958331;28;20046;-70
2022/04/15 10:44:39;;;;;;;23.25;21.58;;;10.80;99.90;;;;;;4977181;28;20574;-69
2022/04/15 10:47:24;;;;;;;23.95;22.15;;;11.10;99.90;;;;;;4968846;28;20054;-69
2022/04/15 10:49:58;;;;;;;25.13;23.05;;;11.70;99.90;;;;;;4974908;28;20149;-70
2022/04/15 10:52:27;;;;;;;27.15;24.85;;;12.00;99.90;;;;;;4961453;28;20050;-68
2022/04/15 10:54:59;;;;;;;25.85;23.83;;;11.90;99.90;;;;;;4956190;28;20139;-70
2022/04/15 10:57:33;;;;;;;26.33;24.63;;;12.00;99.90;;;;;;4977044;28;20065;-69
2022/04/15 11:02:49;;;;;;;25.63;23.95;;;12.10;99.90;;;;;;4975465;28;20054;-71
2022/04/15 11:05:31;;;;;;;25.00;23.30;;;12.10;99.90;;;;;;4975699;28;20054;-69
2022/04/15 11:08:03;;;;;;;26.25;24.05;;;11.90;99.90;;;;;;4956254;28;20050;-70
2022/04/15 11:10:42;;;;;;;26.05;24.35;;;11.80;99.90;;;;;;4972684;28;20077;-69
2022/04/15 11:13:10;;;;;;;26.20;24.35;;;11.60;99.90;;;;;;4976777;28;20563;-70
2022/04/15 11:16:10;;;;;;;24.98;23.13;;;11.60;99.90;;;;;;4974959;28;20054;-70
2022/04/15 11:18:43;;;;;;;25.88;24.20;;;11.90;99.90;;;;;;4959000;28;20342;-70
2022/04/15 11:21:21;;;;;;;24.80;23.30;;;12.20;99.90;;;;;;4970086;28;20149;-68
2022/04/15 11:23:56;;;;;;;26.60;24.80;;;12.20;99.90;;;;;;4939051;28;20488;-69
2022/04/15 11:26:25;;;;;;;26.58;24.85;;;12.20;99.90;;;;;;4952339;28;20556;-70
2022/04/15 11:28:54;;;;;;;25.67;23.98;;;12.20;99.90;;;;;;4968154;28;20125;-69
2022/04/15 11:31:22;;;;;;;26.10;24.23;;;12.10;99.90;;;;;;4970516;28;20046;-70
2022/04/15 11:33:50;;;;;;;25.33;23.67;;;11.90;99.90;;;;;;4941342;28;20527;-70
2022/04/15 11:36:18;;;;;;;26.13;24.42;;;11.90;99.90;;;;;;4955523;28;20046;-70
2022/04/15 11:38:46;;;;;;;26.67;25.08;;;11.90;99.90;;;;;;4972977;28;20986;-70
2022/04/15 11:41:20;;;;;;;27.15;25.55;;;11.90;99.90;;;;;;4973069;28;20097;-70
2022/04/15 11:44:02;;;;;;;25.67;23.95;;;11.80;99.90;;;;;;4975821;28;20593;-70
2022/04/15 11:46:49;;;;;;;26.38;24.48;;;11.70;99.90;;;;;;4958354;28;20055;-69
2022/04/15 11:49:27;;;;;;;24.92;23.23;;;11.80;99.90;;;;;;4948512;28;20050;-69
2022/04/15 11:51:58;;;;;;;23.42;22.02;;;12.20;99.90;;;;;;4945167;28;20173;-69
2022/04/15 11:54:33;;;;;;;24.98;23.40;;;12.50;99.90;;;;;;4957005;28;20064;-70
2022/04/15 11:57:03;;;;;;;27.13;25.52;;;12.90;99.90;;;;;;4968177;28;20050;-70
2022/04/15 11:59:41;;;;;;;27.23;25.63;;;12.90;99.90;;;;;;4955964;28;20046;-70
2022/04/15 12:02:09;;;;;;;29.17;27.05;;;12.60;99.90;;;;;;4956466;28;20585;-69
2022/04/15 12:04:36;;;;;;;30.40;28.30;;;12.30;99.90;;;;;;4983961;28;20125;-70
2022/04/15 12:07:17;;;;;;;26.33;24.63;;;12.20;99.90;;;;;;4956548;28;20270;-69
2022/04/15 12:09:45;;;;;;;29.50;27.25;;;12.30;99.90;;;;;;4957423;28;20047;-69
2022/04/15 12:12:12;;;;;;;28.52;26.63;;;12.40;99.90;;;;;;4974218;28;20046;-69
2022/04/15 12:14:42;;;;;;;29.15;27.10;;;12.30;99.90;;;;;;4974823;28;20533;-70
2022/04/15 12:17:14;;;;;;;28.42;26.58;;;12.20;99.90;;;;;;4974940;28;20083;-70
2022/04/15 12:19:42;;;;;;;28.35;26.25;;;12.20;99.90;;;;;;4954861;28;20046;-69
2022/04/15 12:22:10;;;;;;;27.45;25.52;;;12.00;99.90;;;;;;4968963;28;20128;-70
2022/04/15 12:24:37;;;;;;;26.83;25.23;;;11.90;99.90;;;;;;4971809;28;20146;-69
2022/04/15 12:27:05;;;;;;;25.75;24.17;;;11.90;99.90;;;;;;4957004;28;20466;-69
2022/04/15 12:29:47;;;;;;;27.25;25.40;;;12.10;99.90;;;;;;4940186;28;20057;-70
2022/04/15 12:32:19;;;;;;;26.60;24.83;;;12.30;99.90;;;;;;4972723;28;20656;-69
2022/04/15 12:35:11;;;;;;;24.70;23.05;;;12.30;99.90;;;;;;4939130;28;20050;-69
2022/04/15 12:37:42;;;;;;;25.25;23.70;;;12.30;99.90;;;;;;4969622;28;20050;-69
2022/04/15 12:40:26;;;;;;;25.52;24.02;;;12.20;99.90;;;;;;4952061;28;20053;-70
2022/04/15 12:42:53;;;;;;;25.33;23.85;;;12.40;99.90;;;;;;4970260;28;20470;-69
2022/04/15 12:45:21;;;;;;;25.02;23.52;;;12.50;99.90;;;;;;4981676;28;20080;-70
2022/04/15 12:48:07;;;;;;;26.55;24.95;;;12.50;99.90;;;;;;4978584;28;20434;-69